sensor_id;sensor_type;location;lat;lon;timestamp;temperature;humidity
65637;DHT22;52327;42.622;23.316;2023-04-25T00:00:40;9.81;91.97
65637;DHT22;52327;42.622;23.316;2023-04-25T00:03:08;9.87;92.14
65637;DHT22;52327;42.622;23.316;2023-04-25T00:05:36;9.89;90.57
65637;DHT22;52327;42.622;23.316;2023-04-25T00:08:14;9.86;91.68
65637;DHT22;52327;42.622;23.316;2023-04-25T00:10:45;9.83;91.95
65637;DHT22;52327;42.622;23.316;2023-04-25T00:13:18;9.89;91.37
65637;DHT22;52327;42.622;23.316;2023-04-25T00:15:52;9.87;91.58
65637;DHT22;52327;42.622;23.316;2023-04-25T00:18:29;9.90;91.57
65637;DHT22;52327;42.622;23.316;2023-04-25T00:20:59;9.91;91.66
65637;DHT22;52327;42.622;23.316;2023-04-25T00:23:30;9.89;91.43
65637;DHT22;52327;42.622;23.316;2023-04-25T00:25:59;9.89;91.29
65637;DHT22;52327;42.622;23.316;2023-04-25T00:28:27;9.86;90.90
65637;DHT22;52327;42.622;23.316;2023-04-25T00:30:52;9.84;91.20
65637;DHT22;52327;42.622;23.316;2023-04-25T00:33:18;9.86;91.19
65637;DHT22;52327;42.622;23.316;2023-04-25T00:35:43;9.80;90.80
65637;DHT22;52327;42.622;23.316;2023-04-25T00:38:09;9.80;91.98
65637;DHT22;52327;42.622;23.316;2023-04-25T00:40:34;10.00;92.37
65637;DHT22;52327;42.622;23.316;2023-04-25T00:43:00;10.08;91.73
65637;DHT22;52327;42.622;23.316;2023-04-25T00:45:29;10.07;91.88
65637;DHT22;52327;42.622;23.316;2023-04-25T00:47:55;10.11;92.20
65637;DHT22;52327;42.622;23.316;2023-04-25T00:50:20;10.08;92.07
65637;DHT22;52327;42.622;23.316;2023-04-25T00:52:46;10.07;92.12
65637;DHT22;52327;42.622;23.316;2023-04-25T00:55:12;10.08;91.98
65637;DHT22;52327;42.622;23.316;2023-04-25T00:57:38;9.89;91.50
65637;DHT22;52327;42.622;23.316;2023-04-25T01:00:08;9.86;92.09
65637;DHT22;52327;42.622;23.316;2023-04-25T01:02:35;9.79;91.80
65637;DHT22;52327;42.622;23.316;2023-04-25T01:05:01;9.83;91.98
65637;DHT22;52327;42.622;23.316;2023-04-25T01:07:26;9.84;91.69
65637;DHT22;52327;42.622;23.316;2023-04-25T01:09:52;9.63;92.61
65637;DHT22;52327;42.622;23.316;2023-04-25T01:12:18;9.63;92.54
65637;DHT22;52327;42.622;23.316;2023-04-25T01:14:43;9.67;92.94
65637;DHT22;52327;42.622;23.316;2023-04-25T01:17:10;9.87;92.79
65637;DHT22;52327;42.622;23.316;2023-04-25T01:19:35;9.93;92.37
65637;DHT22;52327;42.622;23.316;2023-04-25T01:22:01;9.90;91.71
65637;DHT22;52327;42.622;23.316;2023-04-25T01:24:27;9.77;92.07
65637;DHT22;52327;42.622;23.316;2023-04-25T01:26:54;9.71;91.87
65637;DHT22;52327;42.622;23.316;2023-04-25T01:29:23;9.54;91.90
65637;DHT22;52327;42.622;23.316;2023-04-25T01:31:51;9.40;92.28
65637;DHT22;52327;42.622;23.316;2023-04-25T01:34:18;9.49;91.83
65637;DHT22;52327;42.622;23.316;2023-04-25T01:36:43;9.54;91.84
65637;DHT22;52327;42.622;23.316;2023-04-25T01:39:09;9.52;91.96
65637;DHT22;52327;42.622;23.316;2023-04-25T01:41:35;9.44;91.84
65637;DHT22;52327;42.622;23.316;2023-04-25T01:44:02;9.39;92.17
65637;DHT22;52327;42.622;23.316;2023-04-25T01:46:27;9.35;92.18
65637;DHT22;52327;42.622;23.316;2023-04-25T01:48:53;9.32;91.99
65637;DHT22;52327;42.622;23.316;2023-04-25T01:51:19;9.43;92.69
65637;DHT22;52327;42.622;23.316;2023-04-25T01:53:44;9.61;93.06
65637;DHT22;52327;42.622;23.316;2023-04-25T01:56:10;9.83;92.27
65637;DHT22;52327;42.622;23.316;2023-04-25T01:58:35;9.73;92.53
65637;DHT22;52327;42.622;23.316;2023-04-25T02:01:01;9.71;92.64
65637;DHT22;52327;42.622;23.316;2023-04-25T02:03:26;9.71;92.63
65637;DHT22;52327;42.622;23.316;2023-04-25T02:05:52;9.87;92.53
65637;DHT22;52327;42.622;23.316;2023-04-25T02:08:17;9.95;92.40
65637;DHT22;52327;42.622;23.316;2023-04-25T02:10:43;9.97;92.14
65637;DHT22;52327;42.622;23.316;2023-04-25T02:13:09;9.91;92.01
65637;DHT22;52327;42.622;23.316;2023-04-25T02:15:34;9.86;92.02
65637;DHT22;52327;42.622;23.316;2023-04-25T02:18:00;9.87;92.19
65637;DHT22;52327;42.622;23.316;2023-04-25T02:20:26;9.89;92.24
65637;DHT22;52327;42.622;23.316;2023-04-25T02:22:52;9.77;91.75
65637;DHT22;52327;42.622;23.316;2023-04-25T02:25:23;9.69;91.62
65637;DHT22;52327;42.622;23.316;2023-04-25T02:27:49;9.79;91.43
65637;DHT22;52327;42.622;23.316;2023-04-25T02:30:23;9.61;91.24
65637;DHT22;52327;42.622;23.316;2023-04-25T02:33:30;9.46;91.51
65637;DHT22;52327;42.622;23.316;2023-04-25T02:36:19;9.42;92.20
65637;DHT22;52327;42.622;23.316;2023-04-25T02:38:45;9.44;92.15
65637;DHT22;52327;42.622;23.316;2023-04-25T02:41:10;9.32;91.64
65637;DHT22;52327;42.622;23.316;2023-04-25T02:43:36;9.38;91.75
65637;DHT22;52327;42.622;23.316;2023-04-25T02:46:01;9.32;91.71
65637;DHT22;52327;42.622;23.316;2023-04-25T02:48:27;9.42;91.39
65637;DHT22;52327;42.622;23.316;2023-04-25T02:50:53;9.36;91.41
65637;DHT22;52327;42.622;23.316;2023-04-25T02:53:19;9.22;91.29
65637;DHT22;52327;42.622;23.316;2023-04-25T02:55:44;9.08;91.72
65637;DHT22;52327;42.622;23.316;2023-04-25T02:58:09;9.08;91.97
65637;DHT22;52327;42.622;23.316;2023-04-25T03:00:35;9.09;91.96
65637;DHT22;52327;42.622;23.316;2023-04-25T03:03:00;9.18;91.49
65637;DHT22;52327;42.622;23.316;2023-04-25T03:05:26;9.16;90.94
65637;DHT22;52327;42.622;23.316;2023-04-25T03:07:51;9.15;92.12
65637;DHT22;52327;42.622;23.316;2023-04-25T03:10:17;9.30;92.16
65637;DHT22;52327;42.622;23.316;2023-04-25T03:12:42;9.38;92.46
65637;DHT22;52327;42.622;23.316;2023-04-25T03:15:08;9.59;91.90
65637;DHT22;52327;42.622;23.316;2023-04-25T03:17:33;9.70;92.45
65637;DHT22;52327;42.622;23.316;2023-04-25T03:19:59;9.87;91.97
65637;DHT22;52327;42.622;23.316;2023-04-25T03:22:24;9.87;92.45
65637;DHT22;52327;42.622;23.316;2023-04-25T03:24:50;10.01;91.66
65637;DHT22;52327;42.622;23.316;2023-04-25T03:27:16;10.03;91.07
65637;DHT22;52327;42.622;23.316;2023-04-25T03:29:41;10.03;90.37
65637;DHT22;52327;42.622;23.316;2023-04-25T03:32:07;10.01;90.79
65637;DHT22;52327;42.622;23.316;2023-04-25T03:34:32;10.10;91.53
65637;DHT22;52327;42.622;23.316;2023-04-25T03:36:58;10.10;90.11
65637;DHT22;52327;42.622;23.316;2023-04-25T03:39:23;10.25;90.72
65637;DHT22;52327;42.622;23.316;2023-04-25T03:41:49;10.10;88.33
65637;DHT22;52327;42.622;23.316;2023-04-25T03:44:14;10.30;91.76
65637;DHT22;52327;42.622;23.316;2023-04-25T03:46:39;10.44;90.30
65637;DHT22;52327;42.622;23.316;2023-04-25T03:49:05;10.46;89.78
65637;DHT22;52327;42.622;23.316;2023-04-25T03:51:30;10.42;88.44
65637;DHT22;52327;42.622;23.316;2023-04-25T03:53:59;10.52;89.55
65637;DHT22;52327;42.622;23.316;2023-04-25T03:56:34;10.52;88.58
65637;DHT22;52327;42.622;23.316;2023-04-25T03:59:03;10.53;88.16
65637;DHT22;52327;42.622;23.316;2023-04-25T04:01:37;10.61;89.28
65637;DHT22;52327;42.622;23.316;2023-04-25T04:04:06;10.73;89.63
65637;DHT22;52327;42.622;23.316;2023-04-25T04:06:34;10.58;87.38
65637;DHT22;52327;42.622;23.316;2023-04-25T04:09:20;10.58;88.74
65637;DHT22;52327;42.622;23.316;2023-04-25T04:12:06;10.56;88.56
65637;DHT22;52327;42.622;23.316;2023-04-25T04:14:32;10.56;86.49
65637;DHT22;52327;42.622;23.316;2023-04-25T04:16:58;10.53;86.16
65637;DHT22;52327;42.622;23.316;2023-04-25T04:19:23;10.58;89.09
65637;DHT22;52327;42.622;23.316;2023-04-25T04:21:49;10.69;89.72
65637;DHT22;52327;42.622;23.316;2023-04-25T04:24:14;10.45;85.61
65637;DHT22;52327;42.622;23.316;2023-04-25T04:26:42;10.58;88.55
65637;DHT22;52327;42.622;23.316;2023-04-25T04:29:10;10.58;85.68
65637;DHT22;52327;42.622;23.316;2023-04-25T04:31:45;10.49;86.49
65637;DHT22;52327;42.622;23.316;2023-04-25T04:34:10;10.52;86.07
65637;DHT22;52327;42.622;23.316;2023-04-25T04:36:36;10.28;89.10
65637;DHT22;52327;42.622;23.316;2023-04-25T04:39:01;10.14;90.37
65637;DHT22;52327;42.622;23.316;2023-04-25T04:41:28;10.30;90.71
65637;DHT22;52327;42.622;23.316;2023-04-25T04:43:53;10.48;90.22
65637;DHT22;52327;42.622;23.316;2023-04-25T04:46:21;10.62;90.33
65637;DHT22;52327;42.622;23.316;2023-04-25T04:48:47;10.79;90.51
65637;DHT22;52327;42.622;23.316;2023-04-25T04:51:12;10.95;90.06
65637;DHT22;52327;42.622;23.316;2023-04-25T04:53:37;11.07;90.22
65637;DHT22;52327;42.622;23.316;2023-04-25T04:56:03;10.72;85.92
65637;DHT22;52327;42.622;23.316;2023-04-25T04:58:30;10.79;86.90
65637;DHT22;52327;42.622;23.316;2023-04-25T05:00:56;10.66;83.23
65637;DHT22;52327;42.622;23.316;2023-04-25T05:03:22;10.77;83.07
65637;DHT22;52327;42.622;23.316;2023-04-25T05:05:47;10.69;82.64
65637;DHT22;52327;42.622;23.316;2023-04-25T05:08:12;10.65;84.93
65637;DHT22;52327;42.622;23.316;2023-04-25T05:10:38;10.68;85.11
65637;DHT22;52327;42.622;23.316;2023-04-25T05:13:03;10.59;88.76
65637;DHT22;52327;42.622;23.316;2023-04-25T05:18:33;10.69;90.00
65637;DHT22;52327;42.622;23.316;2023-04-25T05:20:59;10.69;90.28
65637;DHT22;52327;42.622;23.316;2023-04-25T05:23:24;10.80;90.71
65637;DHT22;52327;42.622;23.316;2023-04-25T05:25:50;10.97;90.39
65637;DHT22;52327;42.622;23.316;2023-04-25T05:28:15;11.10;90.10
65637;DHT22;52327;42.622;23.316;2023-04-25T05:30:41;11.23;89.57
65637;DHT22;52327;42.622;23.316;2023-04-25T05:33:06;11.23;89.94
65637;DHT22;52327;42.622;23.316;2023-04-25T05:35:32;11.22;89.99
65637;DHT22;52327;42.622;23.316;2023-04-25T05:37:57;11.19;89.99
65637;DHT22;52327;42.622;23.316;2023-04-25T05:40:23;10.96;89.96
65637;DHT22;52327;42.622;23.316;2023-04-25T05:42:51;11.04;90.32
65637;DHT22;52327;42.622;23.316;2023-04-25T05:45:16;11.16;90.29
65637;DHT22;52327;42.622;23.316;2023-04-25T05:47:42;11.23;90.09
65637;DHT22;52327;42.622;23.316;2023-04-25T05:50:08;11.28;90.08
65637;DHT22;52327;42.622;23.316;2023-04-25T05:52:33;11.22;89.90
65637;DHT22;52327;42.622;23.316;2023-04-25T05:54:59;11.22;90.05
65637;DHT22;52327;42.622;23.316;2023-04-25T05:57:26;11.17;90.02
65637;DHT22;52327;42.622;23.316;2023-04-25T05:59:52;11.19;89.95
65637;DHT22;52327;42.622;23.316;2023-04-25T06:02:21;11.22;90.06
65637;DHT22;52327;42.622;23.316;2023-04-25T06:04:48;11.38;89.76
65637;DHT22;52327;42.622;23.316;2023-04-25T06:07:14;11.43;89.58
65637;DHT22;52327;42.622;23.316;2023-04-25T06:09:40;11.48;89.60
65637;DHT22;52327;42.622;23.316;2023-04-25T06:12:06;11.50;89.76
65637;DHT22;52327;42.622;23.316;2023-04-25T06:14:32;11.63;89.17
65637;DHT22;52327;42.622;23.316;2023-04-25T06:16:58;11.48;89.16
65637;DHT22;52327;42.622;23.316;2023-04-25T06:19:23;11.37;89.25
65637;DHT22;52327;42.622;23.316;2023-04-25T06:21:48;11.30;89.45
65637;DHT22;52327;42.622;23.316;2023-04-25T06:24:14;11.34;88.74
65637;DHT22;52327;42.622;23.316;2023-04-25T06:26:39;11.36;89.42
65637;DHT22;52327;42.622;23.316;2023-04-25T06:29:05;11.34;89.56
65637;DHT22;52327;42.622;23.316;2023-04-25T06:31:30;11.41;89.77
65637;DHT22;52327;42.622;23.316;2023-04-25T06:33:58;11.61;88.71
65637;DHT22;52327;42.622;23.316;2023-04-25T06:36:23;11.71;89.56
65637;DHT22;52327;42.622;23.316;2023-04-25T06:38:51;12.05;89.61
65637;DHT22;52327;42.622;23.316;2023-04-25T06:41:17;12.30;89.03
65637;DHT22;52327;42.622;23.316;2023-04-25T06:43:43;12.42;88.10
65637;DHT22;52327;42.622;23.316;2023-04-25T06:46:08;12.45;88.50
65637;DHT22;52327;42.622;23.316;2023-04-25T06:48:34;12.45;88.35
65637;DHT22;52327;42.622;23.316;2023-04-25T06:50:59;12.50;88.35
65637;DHT22;52327;42.622;23.316;2023-04-25T06:53:24;12.57;88.38
65637;DHT22;52327;42.622;23.316;2023-04-25T06:55:50;12.73;87.94
65637;DHT22;52327;42.622;23.316;2023-04-25T06:58:15;12.87;87.78
65637;DHT22;52327;42.622;23.316;2023-04-25T07:00:41;13.07;87.92
65637;DHT22;52327;42.622;23.316;2023-04-25T07:03:07;13.18;88.13
65637;DHT22;52327;42.622;23.316;2023-04-25T07:05:32;13.35;87.87
65637;DHT22;52327;42.622;23.316;2023-04-25T07:07:57;13.37;87.73
65637;DHT22;52327;42.622;23.316;2023-04-25T07:10:23;13.42;86.39
65637;DHT22;52327;42.622;23.316;2023-04-25T07:12:48;13.37;87.35
65637;DHT22;52327;42.622;23.316;2023-04-25T07:15:14;13.15;86.40
65637;DHT22;52327;42.622;23.316;2023-04-25T07:17:39;13.27;86.43
65637;DHT22;52327;42.622;23.316;2023-04-25T07:20:05;13.44;85.92
65637;DHT22;52327;42.622;23.316;2023-04-25T07:22:32;13.49;86.69
65637;DHT22;52327;42.622;23.316;2023-04-25T07:24:57;13.61;86.40
65637;DHT22;52327;42.622;23.316;2023-04-25T07:27:23;13.68;85.91
65637;DHT22;52327;42.622;23.316;2023-04-25T07:29:48;13.69;85.51
65637;DHT22;52327;42.622;23.316;2023-04-25T07:32:14;13.65;86.00
65637;DHT22;52327;42.622;23.316;2023-04-25T07:34:39;13.59;85.64
65637;DHT22;52327;42.622;23.316;2023-04-25T07:37:05;13.62;85.61
65637;DHT22;52327;42.622;23.316;2023-04-25T07:39:31;13.66;85.45
65637;DHT22;52327;42.622;23.316;2023-04-25T07:41:56;13.82;85.25
65637;DHT22;52327;42.622;23.316;2023-04-25T07:44:24;13.98;84.66
65637;DHT22;52327;42.622;23.316;2023-04-25T07:46:49;14.10;85.65
65637;DHT22;52327;42.622;23.316;2023-04-25T07:49:15;14.17;85.23
65637;DHT22;52327;42.622;23.316;2023-04-25T07:51:41;14.26;83.97
65637;DHT22;52327;42.622;23.316;2023-04-25T07:54:09;14.20;84.70
65637;DHT22;52327;42.622;23.316;2023-04-25T07:56:34;14.09;84.31
65637;DHT22;52327;42.622;23.316;2023-04-25T07:59:00;14.03;85.14
65637;DHT22;52327;42.622;23.316;2023-04-25T08:01:26;13.98;85.18
65637;DHT22;52327;42.622;23.316;2023-04-25T08:03:52;14.05;84.56
65637;DHT22;52327;42.622;23.316;2023-04-25T08:06:18;14.03;84.41
65637;DHT22;52327;42.622;23.316;2023-04-25T08:08:43;14.06;84.36
65637;DHT22;52327;42.622;23.316;2023-04-25T08:11:09;14.16;84.98
65637;DHT22;52327;42.622;23.316;2023-04-25T08:13:34;14.26;84.09
65637;DHT22;52327;42.622;23.316;2023-04-25T08:16:00;14.16;83.30
65637;DHT22;52327;42.622;23.316;2023-04-25T08:18:25;14.33;82.20
65637;DHT22;52327;42.622;23.316;2023-04-25T08:20:51;14.41;83.86
65637;DHT22;52327;42.622;23.316;2023-04-25T08:23:16;14.70;81.48
65637;DHT22;52327;42.622;23.316;2023-04-25T08:25:42;15.06;80.48
65637;DHT22;52327;42.622;23.316;2023-04-25T08:28:07;15.26;80.60
65637;DHT22;52327;42.622;23.316;2023-04-25T08:30:32;15.40;79.68
65637;DHT22;52327;42.622;23.316;2023-04-25T08:32:58;15.66;77.65
65637;DHT22;52327;42.622;23.316;2023-04-25T08:35:24;15.93;78.68
65637;DHT22;52327;42.622;23.316;2023-04-25T08:37:49;16.13;77.31
65637;DHT22;52327;42.622;23.316;2023-04-25T08:40:15;16.45;72.34
65637;DHT22;52327;42.622;23.316;2023-04-25T08:42:41;16.59;71.68
65637;DHT22;52327;42.622;23.316;2023-04-25T08:45:08;16.47;73.65
65637;DHT22;52327;42.622;23.316;2023-04-25T08:47:34;15.96;75.47
65637;DHT22;52327;42.622;23.316;2023-04-25T08:50:03;15.52;77.92
65637;DHT22;52327;42.622;23.316;2023-04-25T08:52:36;15.12;78.08
65637;DHT22;52327;42.622;23.316;2023-04-25T08:55:03;14.93;77.05
65637;DHT22;52327;42.622;23.316;2023-04-25T08:57:31;15.01;77.33
65637;DHT22;52327;42.622;23.316;2023-04-25T08:59:57;15.11;77.06
65637;DHT22;52327;42.622;23.316;2023-04-25T09:02:24;15.33;74.56
65637;DHT22;52327;42.622;23.316;2023-04-25T09:04:50;15.49;76.26
65637;DHT22;52327;42.622;23.316;2023-04-25T09:07:15;15.67;75.04
65637;DHT22;52327;42.622;23.316;2023-04-25T09:09:43;15.59;72.87
65637;DHT22;52327;42.622;23.316;2023-04-25T09:12:09;15.67;73.85
65637;DHT22;52327;42.622;23.316;2023-04-25T09:14:35;15.86;74.01
65637;DHT22;52327;42.622;23.316;2023-04-25T09:17:02;15.69;71.32
65637;DHT22;52327;42.622;23.316;2023-04-25T09:19:34;15.93;73.21
65637;DHT22;52327;42.622;23.316;2023-04-25T09:22:02;16.40;72.76
65637;DHT22;52327;42.622;23.316;2023-04-25T09:27:09;16.44;73.88
65637;DHT22;52327;42.622;23.316;2023-04-25T09:29:38;16.31;75.27
65637;DHT22;52327;42.622;23.316;2023-04-25T09:32:17;16.13;74.68
65637;DHT22;52327;42.622;23.316;2023-04-25T09:34:53;15.59;76.32
65637;DHT22;52327;42.622;23.316;2023-04-25T09:37:21;15.21;79.26
65637;DHT22;52327;42.622;23.316;2023-04-25T09:39:55;14.50;82.35
65637;DHT22;52327;42.622;23.316;2023-04-25T09:42:23;14.13;83.78
65637;DHT22;52327;42.622;23.316;2023-04-25T09:44:51;13.42;84.03
65637;DHT22;52327;42.622;23.316;2023-04-25T09:47:17;13.08;85.66
65637;DHT22;52327;42.622;23.316;2023-04-25T09:49:43;12.98;85.97
65637;DHT22;52327;42.622;23.316;2023-04-25T09:52:14;13.15;87.74
65637;DHT22;52327;42.622;23.316;2023-04-25T09:54:40;13.52;84.46
65637;DHT22;52327;42.622;23.316;2023-04-25T09:57:13;13.83;86.40
65637;DHT22;52327;42.622;23.316;2023-04-25T09:59:43;14.23;85.18
65637;DHT22;52327;42.622;23.316;2023-04-25T10:02:10;14.45;81.60
65637;DHT22;52327;42.622;23.316;2023-04-25T10:04:37;14.74;81.33
65637;DHT22;52327;42.622;23.316;2023-04-25T10:07:05;14.89;77.22
65637;DHT22;52327;42.622;23.316;2023-04-25T10:09:32;15.21;80.89
65637;DHT22;52327;42.622;23.316;2023-04-25T10:12:00;15.46;78.07
65637;DHT22;52327;42.622;23.316;2023-04-25T10:14:26;15.28;74.55
65637;DHT22;52327;42.622;23.316;2023-04-25T10:16:53;14.64;77.30
65637;DHT22;52327;42.622;23.316;2023-04-25T10:19:22;14.20;74.35
65637;DHT22;52327;42.622;23.316;2023-04-25T10:22:08;13.59;79.43
65637;DHT22;52327;42.622;23.316;2023-04-25T10:24:37;13.22;79.42
65637;DHT22;52327;42.622;23.316;2023-04-25T10:27:04;13.06;75.70
65637;DHT22;52327;42.622;23.316;2023-04-25T10:29:30;13.17;78.40
65637;DHT22;52327;42.622;23.316;2023-04-25T10:31:56;13.34;75.12
65637;DHT22;52327;42.622;23.316;2023-04-25T10:34:44;13.51;71.60
65637;DHT22;52327;42.622;23.316;2023-04-25T10:37:13;13.78;73.86
65637;DHT22;52327;42.622;23.316;2023-04-25T10:39:41;14.09;68.33
65637;DHT22;52327;42.622;23.316;2023-04-25T10:42:08;14.37;68.58
65637;DHT22;52327;42.622;23.316;2023-04-25T10:44:33;14.72;65.61
65637;DHT22;52327;42.622;23.316;2023-04-25T10:47:01;14.85;68.70
65637;DHT22;52327;42.622;23.316;2023-04-25T10:49:33;14.82;66.46
65637;DHT22;52327;42.622;23.316;2023-04-25T10:54:55;14.13;66.41
65637;DHT22;52327;42.622;23.316;2023-04-25T10:57:44;14.08;69.29
65637;DHT22;52327;42.622;23.316;2023-04-25T11:00:17;14.38;66.97
65637;DHT22;52327;42.622;23.316;2023-04-25T11:05:33;14.12;73.96
65637;DHT22;52327;42.622;23.316;2023-04-25T11:07:59;14.06;77.72
65637;DHT22;52327;42.622;23.316;2023-04-25T11:10:34;14.21;75.60
65637;DHT22;52327;42.622;23.316;2023-04-25T11:13:02;14.61;74.55
65637;DHT22;52327;42.622;23.316;2023-04-25T11:15:28;15.08;73.09
65637;DHT22;52327;42.622;23.316;2023-04-25T11:17:54;15.73;72.24
65637;DHT22;52327;42.622;23.316;2023-04-25T11:20:21;16.38;72.25
65637;DHT22;52327;42.622;23.316;2023-04-25T11:22:47;16.86;64.85
65637;DHT22;52327;42.622;23.316;2023-04-25T11:25:14;17.38;65.19
65637;DHT22;52327;42.622;23.316;2023-04-25T11:27:54;18.18;66.35
65637;DHT22;52327;42.622;23.316;2023-04-25T11:30:26;18.36;56.45
65637;DHT22;52327;42.622;23.316;2023-04-25T11:32:52;17.50;57.29
65637;DHT22;52327;42.622;23.316;2023-04-25T11:35:20;16.65;61.92
65637;DHT22;52327;42.622;23.316;2023-04-25T11:37:48;16.00;63.49
65637;DHT22;52327;42.622;23.316;2023-04-25T11:40:14;15.33;68.54
65637;DHT22;52327;42.622;23.316;2023-04-25T11:42:43;14.70;66.92
65637;DHT22;52327;42.622;23.316;2023-04-25T11:45:09;14.05;69.32
65637;DHT22;52327;42.622;23.316;2023-04-25T11:47:35;13.47;74.32
65637;DHT22;52327;42.622;23.316;2023-04-25T11:50:06;12.33;79.36
65637;DHT22;52327;42.622;23.316;2023-04-25T11:52:50;11.00;84.58
65637;DHT22;52327;42.622;23.316;2023-04-25T11:55:18;10.41;89.16
65637;DHT22;52327;42.622;23.316;2023-04-25T11:57:45;10.04;90.31
65637;DHT22;52327;42.622;23.316;2023-04-25T12:00:13;10.30;91.96
65637;DHT22;52327;42.622;23.316;2023-04-25T12:02:42;10.95;91.99
65637;DHT22;52327;42.622;23.316;2023-04-25T12:05:09;11.60;90.81
65637;DHT22;52327;42.622;23.316;2023-04-25T12:07:36;14.10;89.17
65637;DHT22;52327;42.622;23.316;2023-04-25T12:10:07;18.26;82.39
65637;DHT22;52327;42.622;23.316;2023-04-25T12:12:34;20.73;74.98
65637;DHT22;52327;42.622;23.316;2023-04-25T12:15:16;23.61;67.34
65637;DHT22;52327;42.622;23.316;2023-04-25T12:17:48;23.96;66.23
65637;DHT22;52327;42.622;23.316;2023-04-25T12:20:23;24.87;58.29
65637;DHT22;52327;42.622;23.316;2023-04-25T12:22:50;24.52;53.21
65637;DHT22;52327;42.622;23.316;2023-04-25T12:25:41;22.95;57.19
65637;DHT22;52327;42.622;23.316;2023-04-25T12:28:16;20.63;53.14
65637;DHT22;52327;42.622;23.316;2023-04-25T12:31:06;20.94;59.70
65637;DHT22;52327;42.622;23.316;2023-04-25T12:33:36;20.27;55.75
65637;DHT22;52327;42.622;23.316;2023-04-25T12:36:03;21.29;54.35
65637;DHT22;52327;42.622;23.316;2023-04-25T12:38:36;22.03;55.18
65637;DHT22;52327;42.622;23.316;2023-04-25T12:41:02;22.48;50.69
65637;DHT22;52327;42.622;23.316;2023-04-25T12:43:27;22.52;51.66
65637;DHT22;52327;42.622;23.316;2023-04-25T12:45:53;22.37;49.03
65637;DHT22;52327;42.622;23.316;2023-04-25T12:48:20;20.70;54.98
65637;DHT22;52327;42.622;23.316;2023-04-25T12:50:46;19.93;56.22
65637;DHT22;52327;42.622;23.316;2023-04-25T12:53:21;20.03;56.31
65637;DHT22;52327;42.622;23.316;2023-04-25T12:55:47;19.59;54.27
65637;DHT22;52327;42.622;23.316;2023-04-25T12:58:18;17.67;61.40
65637;DHT22;52327;42.622;23.316;2023-04-25T13:00:44;16.54;68.25
65637;DHT22;52327;42.622;23.316;2023-04-25T13:03:10;15.82;69.70
65637;DHT22;52327;42.622;23.316;2023-04-25T13:05:36;15.67;71.99
65637;DHT22;52327;42.622;23.316;2023-04-25T13:08:02;14.87;71.01
65637;DHT22;52327;42.622;23.316;2023-04-25T13:10:28;14.40;72.70
65637;DHT22;52327;42.622;23.316;2023-04-25T13:12:53;14.06;78.31
65637;DHT22;52327;42.622;23.316;2023-04-25T13:15:19;13.80;78.45
65637;DHT22;52327;42.622;23.316;2023-04-25T13:17:44;12.66;83.04
65637;DHT22;52327;42.622;23.316;2023-04-25T13:20:10;11.64;87.01
65637;DHT22;52327;42.622;23.316;2023-04-25T13:22:37;11.24;88.99
65637;DHT22;52327;42.622;23.316;2023-04-25T13:25:07;11.14;88.84
65637;DHT22;52327;42.622;23.316;2023-04-25T13:27:34;10.85;89.27
65637;DHT22;52327;42.622;23.316;2023-04-25T13:30:01;10.86;90.91
65637;DHT22;52327;42.622;23.316;2023-04-25T13:32:29;10.86;90.34
65637;DHT22;52327;42.622;23.316;2023-04-25T13:34:55;10.83;90.42
65637;DHT22;52327;42.622;23.316;2023-04-25T13:37:21;10.65;89.88
65637;DHT22;52327;42.622;23.316;2023-04-25T13:39:49;10.55;90.08
65637;DHT22;52327;42.622;23.316;2023-04-25T13:42:14;10.56;91.63
65637;DHT22;52327;42.622;23.316;2023-04-25T13:44:41;10.44;90.58
65637;DHT22;52327;42.622;23.316;2023-04-25T13:47:06;10.41;91.24
65637;DHT22;52327;42.622;23.316;2023-04-25T13:49:32;10.56;90.67
65637;DHT22;52327;42.622;23.316;2023-04-25T13:51:57;10.53;90.85
65637;DHT22;52327;42.622;23.316;2023-04-25T13:54:22;10.53;90.06
65637;DHT22;52327;42.622;23.316;2023-04-25T13:56:49;10.69;91.19
65637;DHT22;52327;42.622;23.316;2023-04-25T13:59:14;11.36;90.75
65637;DHT22;52327;42.622;23.316;2023-04-25T14:01:40;14.43;87.53
65637;DHT22;52327;42.622;23.316;2023-04-25T14:04:05;17.12;81.19
65637;DHT22;52327;42.622;23.316;2023-04-25T14:06:31;19.49;78.29
65637;DHT22;52327;42.622;23.316;2023-04-25T14:08:57;20.95;79.08
65637;DHT22;52327;42.622;23.316;2023-04-25T14:11:22;21.94;75.11
65637;DHT22;52327;42.622;23.316;2023-04-25T14:13:48;22.89;72.57
65637;DHT22;52327;42.622;23.316;2023-04-25T14:16:15;23.71;66.15
65637;DHT22;52327;42.622;23.316;2023-04-25T14:18:41;24.87;63.87
65637;DHT22;52327;42.622;23.316;2023-04-25T14:21:06;25.31;60.71
65637;DHT22;52327;42.622;23.316;2023-04-25T14:23:31;24.68;56.33
65637;DHT22;52327;42.622;23.316;2023-04-25T14:25:57;22.47;59.74
65637;DHT22;52327;42.622;23.316;2023-04-25T14:28:22;20.64;60.25
65637;DHT22;52327;42.622;23.316;2023-04-25T14:30:48;20.09;63.51
65637;DHT22;52327;42.622;23.316;2023-04-25T14:33:13;19.06;68.95
65637;DHT22;52327;42.622;23.316;2023-04-25T14:35:39;18.35;69.57
65637;DHT22;52327;42.622;23.316;2023-04-25T14:38:05;17.73;72.54
65637;DHT22;52327;42.622;23.316;2023-04-25T14:40:30;17.31;73.43
65637;DHT22;52327;42.622;23.316;2023-04-25T14:42:56;17.37;74.33
65637;DHT22;52327;42.622;23.316;2023-04-25T14:45:21;17.23;72.88
65637;DHT22;52327;42.622;23.316;2023-04-25T14:47:47;16.82;73.41
65637;DHT22;52327;42.622;23.316;2023-04-25T14:50:12;16.47;75.74
65637;DHT22;52327;42.622;23.316;2023-04-25T14:52:38;16.11;73.48
65637;DHT22;52327;42.622;23.316;2023-04-25T14:55:03;16.18;77.32
65637;DHT22;52327;42.622;23.316;2023-04-25T14:57:33;16.31;79.75
65637;DHT22;52327;42.622;23.316;2023-04-25T14:59:58;16.26;77.13
65637;DHT22;52327;42.622;23.316;2023-04-25T15:02:24;16.10;77.28
65637;DHT22;52327;42.622;23.316;2023-04-25T15:04:50;16.11;79.11
65637;DHT22;52327;42.622;23.316;2023-04-25T15:07:16;16.07;79.26
65637;DHT22;52327;42.622;23.316;2023-04-25T15:09:41;16.04;80.28
65637;DHT22;52327;42.622;23.316;2023-04-25T15:12:07;16.01;79.91
65637;DHT22;52327;42.622;23.316;2023-04-25T15:14:33;15.86;81.26
65637;DHT22;52327;42.622;23.316;2023-04-25T15:16:59;15.79;80.87
65637;DHT22;52327;42.622;23.316;2023-04-25T15:19:25;15.67;80.42
65637;DHT22;52327;42.622;23.316;2023-04-25T15:21:51;15.67;77.80
65637;DHT22;52327;42.622;23.316;2023-04-25T15:24:16;15.62;73.82
65637;DHT22;52327;42.622;23.316;2023-04-25T15:26:42;15.31;79.47
65637;DHT22;52327;42.622;23.316;2023-04-25T15:29:07;14.91;79.22
65637;DHT22;52327;42.622;23.316;2023-04-25T15:31:33;14.57;79.42